Startpagina
METAR-TAF:

METAR-TAF

Vliegvelden :

Lynden Pindling International Airport

Nassau, Bahama's

breedte: 25-03N, lengte: 077-28W, hoogte: 3 m

Actueel weer

Dit bericht is 2 uur en het 4 minuten geleden gemaakt, om 02:00 UTC
Weinig wind
Temperatuur 22°C
Vochtigheid 94%
Druk 1019 hPa
Zicht 10 km of meer
Weinig wolken op 2000 ft

METAR: MYNN 210200Z 00000KT 9999 FEW020 22/21 A3009

Tijdstip: 23:04 (04:04 UTC)

Verwachting

Dit bericht is 7 uur en het 4 minuten geleden gemaakt, om 21:00 UTC
Verwachting geldig van 21 om 00 UTC tot 21 om 24 UTC
Wind 2 kt uit variabele richting
Zicht 10 km of meer
Weinig wolken op 2000 ft
Wijzigt naar
van 21 om 13 UTC tot 21 om 15 UTC
Wind 6 kt uit het oostnoordoosten
Kans 30% :
Tijdelijke
van 21 om 15 UTC tot 21 om 19 UTC
Verspreide wolken op 2200 ft
buien in de omgeving

TAF: MYNN 202100Z 2100/2124 VRB02KT 9999 FEW020 BECMG 2113/2115 06006KT PROB30 TEMPO 2115/2119 VCSH SCT022

Waarnemingen en weersverwachtingen van meer dan 4000 vliegvelden (METAR en TAF).

De beschikbare stations zijn de gele en rode punten op de kaart.

Ga met uw muis naar het station om de naam te zien.

Klik dan om waarnemingen en weersverwachtingen te zien.

kaart wijzigen: klik op de groene knoppen met een zwart kruis om in te zoomen, op de groene knop met een streepje om uit te zoomen of op de groene pijlen voor aangrenzende kaarten.


METAR-TAF: